Time;durP1;ratioP1;P1;durP2;ratioP2;P2;SDS_P1;SDS_P2;PMS_P1;PMS_P2;Temp;Humidity;BMP_temperature;BMP_pressure;BME280_temperature;BME280_humidity;BME280_pressure;Samples;Min_cycle;Max_cycle;Signal;HPM_P1;HPM_P2
2022/07/31 00:00:22;;;;;;;9.05;7.43;;;26.00;66.50;;;;;;5052754;28;20051;-80
2022/07/31 00:02:48;;;;;;;10.38;7.22;;;26.00;66.50;;;;;;5056516;28;20103;-79
2022/07/31 00:05:14;;;;;;;9.65;7.93;;;26.10;66.40;;;;;;5053856;28;20472;-80
2022/07/31 00:07:39;;;;;;;8.82;7.90;;;26.20;65.90;;;;;;5053967;28;20031;-78
2022/07/31 00:10:06;;;;;;;7.90;7.07;;;25.90;66.80;;;;;;5053297;28;20379;-82
2022/07/31 00:12:33;;;;;;;7.95;7.15;;;26.00;66.30;;;;;;5053541;28;20028;-83
2022/07/31 00:15:00;;;;;;;7.95;7.15;;;26.30;65.50;;;;;;5053072;28;20028;-84
2022/07/31 00:17:26;;;;;;;9.23;6.97;;;26.40;65.10;;;;;;5052484;28;20029;-79
2022/07/31 00:19:52;;;;;;;9.55;7.18;;;26.00;65.80;;;;;;5052406;28;20033;-81
2022/07/31 00:22:18;;;;;;;8.88;6.97;;;25.90;65.70;;;;;;5053485;28;20108;-84
2022/07/31 00:24:44;;;;;;;8.20;6.85;;;25.70;66.10;;;;;;5054090;28;20043;-79
2022/07/31 00:27:09;;;;;;;9.27;6.97;;;25.70;66.40;;;;;;5055594;28;20029;-78
2022/07/31 00:29:37;;;;;;;8.52;6.82;;;25.70;66.60;;;;;;5057232;28;20036;-85
2022/07/31 00:32:03;;;;;;;8.60;7.05;;;25.60;66.60;;;;;;5057328;28;20021;-87
2022/07/31 00:34:28;;;;;;;7.97;5.97;;;25.50;66.70;;;;;;5056614;28;20095;-76
2022/07/31 00:36:54;;;;;;;6.82;6.10;;;25.30;66.80;;;;;;5062487;28;20024;-82
2022/07/31 00:39:20;;;;;;;7.22;6.07;;;25.20;67.10;;;;;;5077514;28;20024;-78
2022/07/31 00:41:46;;;;;;;7.32;6.20;;;25.00;67.40;;;;;;5070345;28;20476;-80
2022/07/31 00:44:12;;;;;;;7.78;6.10;;;25.10;67.50;;;;;;5056809;28;20562;-79
2022/07/31 00:46:40;;;;;;;8.32;6.25;;;25.10;67.40;;;;;;5055788;28;20422;-80
2022/07/31 00:49:07;;;;;;;7.65;6.03;;;25.40;66.70;;;;;;5055671;28;20039;-84
2022/07/31 00:51:35;;;;;;;6.95;5.80;;;25.60;66.10;;;;;;5057213;28;20014;-81
2022/07/31 00:54:00;;;;;;;8.75;6.15;;;25.40;66.50;;;;;;5055733;28;20025;-87
2022/07/31 00:56:26;;;;;;;6.43;5.78;;;25.70;65.70;;;;;;5057602;28;20024;-81
2022/07/31 00:58:54;;;;;;;6.40;5.80;;;25.90;65.00;;;;;;5075986;28;20360;-85
2022/07/31 01:01:20;;;;;;;7.30;5.30;;;25.80;64.90;;;;;;5074537;28;20025;-86
2022/07/31 01:03:46;;;;;;;8.00;5.70;;;25.30;65.10;;;;;;5072745;28;20054;-76
2022/07/31 01:06:12;;;;;;;6.03;4.90;;;25.30;65.50;;;;;;5055587;28;20025;-77
2022/07/31 01:08:38;;;;;;;8.10;5.40;;;25.50;64.90;;;;;;5055368;28;20035;-83
2022/07/31 01:11:07;;;;;;;6.78;5.50;;;25.70;64.80;;;;;;5055613;28;20422;-80
2022/07/31 01:13:56;;;;;;;7.22;5.20;;;25.90;64.50;;;;;;5056580;28;20025;-82
2022/07/31 01:16:26;;;;;;;8.57;5.30;;;25.90;64.60;;;;;;5055878;28;20103;-85
2022/07/31 01:18:55;;;;;;;7.22;5.18;;;25.80;64.60;;;;;;5054863;28;20021;-83
2022/07/31 01:21:38;;;;;;;9.35;5.47;;;25.70;64.70;;;;;;5055026;28;20028;-84
2022/07/31 01:24:29;;;;;;;6.82;5.70;;;25.40;65.50;;;;;;5059099;28;20480;-83
2022/07/31 01:27:02;;;;;;;7.38;5.57;;;25.30;65.50;;;;;;5055232;28;20036;-80
2022/07/31 01:29:34;;;;;;;6.85;5.43;;;25.20;65.60;;;;;;5056016;28;20387;-78
2022/07/31 01:32:08;;;;;;;7.50;5.05;;;25.30;65.30;;;;;;5075116;28;20539;-78
2022/07/31 01:34:51;;;;;;;7.40;5.50;;;25.30;65.30;;;;;;5061822;28;20021;-82
2022/07/31 01:37:22;;;;;;;6.90;5.30;;;25.20;66.10;;;;;;5054295;28;20040;-82
2022/07/31 01:39:53;;;;;;;;;;;25.10;65.70;;;;;;5059778;28;20039;-78
2022/07/31 01:42:22;;;;;;;5.57;4.85;;;25.00;66.20;;;;;;5054340;28;19909;-82
2022/07/31 01:44:52;;;;;;;6.28;4.90;;;25.10;65.90;;;;;;5056272;28;20402;-82
2022/07/31 01:47:20;;;;;;;7.55;4.93;;;25.20;65.50;;;;;;5054528;28;20375;-86
2022/07/31 01:49:49;;;;;;;6.78;4.70;;;25.30;64.90;;;;;;5054287;28;20086;-77
2022/07/31 01:52:15;;;;;;;9.27;4.72;;;25.10;65.60;;;;;;5055831;28;20100;-80
2022/07/31 01:54:42;;;;;;;5.63;4.30;;;24.90;65.70;;;;;;5055712;28;20048;-83
2022/07/31 01:57:09;;;;;;;5.13;3.70;;;24.90;65.80;;;;;;5054614;28;20438;-80
2022/07/31 01:59:37;;;;;;;4.53;3.83;;;25.00;65.90;;;;;;5054977;28;20082;-81
2022/07/31 02:02:03;;;;;;;5.05;3.97;;;25.30;64.90;;;;;;5056083;28;20031;-82
2022/07/31 02:04:30;;;;;;;5.47;3.70;;;25.10;65.10;;;;;;5054449;28;20041;-81
2022/07/31 02:06:58;;;;;;;4.85;3.92;;;25.30;64.80;;;;;;5054224;28;20518;-77
2022/07/31 02:09:24;;;;;;;6.90;4.40;;;25.50;64.20;;;;;;5055196;28;20515;-84
2022/07/31 02:11:51;;;;;;;4.97;4.07;;;25.40;64.40;;;;;;5055787;28;20369;-86
2022/07/31 02:14:19;;;;;;;5.13;4.50;;;25.50;64.90;;;;;;5053756;28;20139;-80
2022/07/31 02:16:47;;;;;;;5.50;4.40;;;25.40;65.10;;;;;;5054356;28;20471;-81
2022/07/31 02:19:13;;;;;;;6.43;4.60;;;25.10;65.80;;;;;;5054549;28;20036;-82
2022/07/31 02:21:40;;;;;;;6.50;4.47;;;24.90;65.70;;;;;;5055058;28;20017;-80
2022/07/31 02:24:06;;;;;;;5.43;4.22;;;24.90;65.70;;;;;;5054419;28;20036;-82
2022/07/31 02:26:33;;;;;;;5.10;3.83;;;24.80;66.10;;;;;;5053726;28;20033;-80
2022/07/31 02:29:00;;;;;;;5.25;4.25;;;25.00;66.20;;;;;;5055545;28;20123;-83
2022/07/31 02:31:29;;;;;;;4.65;3.85;;;25.20;65.60;;;;;;5054459;28;20025;-86
2022/07/31 02:33:55;;;;;;;6.15;3.70;;;25.50;64.50;;;;;;5055319;28;20070;-81
2022/07/31 02:36:22;;;;;;;5.57;3.60;;;25.40;64.20;;;;;;5055589;28;20025;-81
2022/07/31 02:38:50;;;;;;;4.30;3.47;;;25.30;64.30;;;;;;5053170;28;20030;-83
2022/07/31 02:41:18;;;;;;;5.22;3.35;;;24.90;64.80;;;;;;5055225;28;20092;-85
2022/07/31 02:43:44;;;;;;;4.30;3.33;;;24.80;65.40;;;;;;5053840;28;20082;-82
2022/07/31 02:46:12;;;;;;;4.80;3.20;;;24.60;65.80;;;;;;5053468;28;20036;-80
2022/07/31 02:48:38;;;;;;;4.00;3.05;;;24.60;66.10;;;;;;5052949;28;20029;-82
2022/07/31 02:51:05;;;;;;;3.92;3.13;;;24.50;65.60;;;;;;5054980;28;20028;-86
2022/07/31 02:53:31;;;;;;;4.50;3.35;;;24.80;65.00;;;;;;5053548;28;20033;-79
2022/07/31 02:55:57;;;;;;;3.63;2.80;;;24.80;64.80;;;;;;5054333;28;20025;-79
2022/07/31 02:58:23;;;;;;;5.85;3.13;;;24.80;64.50;;;;;;5053471;28;20037;-83
2022/07/31 03:01:00;;;;;;;4.18;3.20;;;24.90;64.50;;;;;;5053143;28;20024;-83
2022/07/31 03:03:25;;;;;;;3.75;2.88;;;24.80;64.30;;;;;;5053464;28;20033;-81
2022/07/31 03:05:51;;;;;;;5.05;3.03;;;24.80;64.50;;;;;;5070240;28;20021;-78
2022/07/31 03:08:17;;;;;;;4.13;3.25;;;24.80;64.50;;;;;;5053417;28;20028;-88
2022/07/31 03:10:43;;;;;;;4.88;3.38;;;24.80;64.40;;;;;;5055121;28;20356;-85
2022/07/31 03:13:10;;;;;;;4.22;2.95;;;24.50;64.90;;;;;;5060703;28;20082;-81
2022/07/31 03:15:39;;;;;;;3.90;3.00;;;24.30;65.60;;;;;;5073333;28;20025;-84
2022/07/31 03:18:06;;;;;;;4.68;3.20;;;24.20;65.30;;;;;;5073356;28;20033;-79
2022/07/31 03:20:34;;;;;;;6.18;3.00;;;24.00;66.00;;;;;;5074428;28;20044;-88
2022/07/31 03:23:01;;;;;;;3.65;2.92;;;23.90;66.50;;;;;;5071371;28;20036;-84
2022/07/31 03:25:26;;;;;;;4.32;3.20;;;24.20;65.80;;;;;;5053396;28;20029;-80
2022/07/31 03:27:53;;;;;;;5.43;3.17;;;24.10;65.80;;;;;;5053534;28;20150;-81
2022/07/31 03:30:23;;;;;;;6.03;2.95;;;24.00;66.10;;;;;;5053304;28;20120;-84
2022/07/31 03:32:51;;;;;;;3.97;3.05;;;24.30;65.50;;;;;;5054407;28;20025;-81
2022/07/31 03:35:17;;;;;;;5.90;3.08;;;24.50;65.00;;;;;;5053259;28;20025;-89
2022/07/31 03:37:43;;;;;;;4.60;3.20;;;24.40;65.50;;;;;;5052995;28;20037;-87
2022/07/31 03:40:09;;;;;;;7.30;3.50;;;24.40;65.60;;;;;;5053273;28;20117;-84
2022/07/31 03:42:35;;;;;;;5.70;3.47;;;24.40;65.70;;;;;;5052749;28;20514;-78
2022/07/31 03:45:03;;;;;;;4.55;3.33;;;24.30;65.80;;;;;;5054459;28;20025;-82
2022/07/31 03:47:29;;;;;;;3.72;3.10;;;24.50;65.90;;;;;;5054145;28;20166;-85
2022/07/31 03:49:55;;;;;;;3.88;3.00;;;24.60;65.70;;;;;;5052709;28;20025;-82
2022/07/31 03:52:21;;;;;;;4.35;3.20;;;24.70;65.70;;;;;;5053966;28;20024;-85
2022/07/31 03:54:47;;;;;;;4.70;3.20;;;24.90;65.00;;;;;;5052569;28;20082;-80
2022/07/31 03:57:14;;;;;;;4.40;3.55;;;24.80;65.00;;;;;;5053548;28;20021;-79
2022/07/31 03:59:40;;;;;;;4.28;3.40;;;24.60;65.70;;;;;;5056073;28;20024;-80
2022/07/31 04:02:09;;;;;;;5.30;3.40;;;24.70;65.90;;;;;;5057143;28;20035;-85
2022/07/31 04:04:36;;;;;;;4.07;3.28;;;24.60;65.10;;;;;;5066576;28;20037;-81
2022/07/31 04:07:02;;;;;;;5.20;3.67;;;24.50;65.90;;;;;;5073899;28;20031;-82
2022/07/31 04:09:28;;;;;;;5.90;3.38;;;24.60;65.70;;;;;;5056976;28;20523;-77
2022/07/31 04:11:54;;;;;;;4.65;3.65;;;24.90;65.00;;;;;;5057101;28;20029;-81
2022/07/31 04:14:20;;;;;;;4.75;3.60;;;25.00;64.00;;;;;;5056729;28;20033;-79
2022/07/31 04:16:45;;;;;;;5.05;3.67;;;25.10;64.60;;;;;;5057841;28;20018;-79
2022/07/31 04:19:11;;;;;;;4.88;3.40;;;24.90;64.40;;;;;;5057842;28;20033;-85
2022/07/31 04:21:37;;;;;;;4.97;3.50;;;24.70;64.70;;;;;;5057830;28;20379;-81
2022/07/31 04:24:04;;;;;;;4.90;3.70;;;24.50;65.60;;;;;;5073278;28;20037;-82
2022/07/31 04:26:30;;;;;;;4.95;3.80;;;24.60;65.50;;;;;;5060238;28;20486;-86
2022/07/31 04:28:55;;;;;;;5.18;3.40;;;24.70;64.90;;;;;;5065614;28;20033;-81
2022/07/31 04:31:21;;;;;;;6.60;3.28;;;24.60;65.10;;;;;;5057620;28;20447;-86
2022/07/31 04:33:47;;;;;;;5.32;3.88;;;24.30;65.70;;;;;;5057876;28;20403;-80
2022/07/31 04:36:13;;;;;;;5.55;3.60;;;24.30;65.90;;;;;;5062867;28;20035;-80
2022/07/31 04:38:39;;;;;;;4.50;3.72;;;24.10;66.30;;;;;;5072028;28;20025;-81
2022/07/31 04:41:05;;;;;;;4.20;3.35;;;23.90;67.70;;;;;;5058742;28;20040;-81
2022/07/31 04:43:31;;;;;;;5.70;3.15;;;23.90;68.10;;;;;;5075638;28;20048;-82
2022/07/31 04:45:56;;;;;;;4.45;3.20;;;23.70;69.20;;;;;;5076319;28;20036;-80
2022/07/31 04:48:22;;;;;;;3.75;2.85;;;23.40;69.10;;;;;;5077053;28;20028;-80
2022/07/31 04:50:48;;;;;;;4.95;3.72;;;23.20;71.00;;;;;;5075938;28;20017;-78
2022/07/31 04:53:14;;;;;;;6.60;4.30;;;23.40;70.30;;;;;;5073332;28;20055;-79
2022/07/31 04:55:40;;;;;;;6.15;4.47;;;23.70;70.10;;;;;;5076462;28;20379;-80
2022/07/31 04:58:06;;;;;;;7.45;3.95;;;23.30;70.80;;;;;;5077103;28;20021;-80
2022/07/31 05:00:32;;;;;;;4.65;3.90;;;22.90;72.60;;;;;;5076914;28;20432;-79
2022/07/31 05:02:58;;;;;;;5.20;4.10;;;22.90;72.60;;;;;;5076494;28;20051;-79
2022/07/31 05:05:23;;;;;;;5.65;5.15;;;22.90;73.00;;;;;;5076601;28;20414;-78
2022/07/31 05:07:49;;;;;;;5.03;4.15;;;22.80;72.90;;;;;;5074237;28;20025;-78
2022/07/31 05:12:58;;;;;;;7.28;5.13;;;22.80;73.60;;;;;;5056680;28;20071;-79
2022/07/31 05:15:24;;;;;;;6.68;5.00;;;23.00;72.60;;;;;;5055951;28;20060;-83
2022/07/31 05:17:50;;;;;;;6.40;4.72;;;22.80;73.90;;;;;;5056678;28;20100;-80
2022/07/31 05:20:17;;;;;;;5.85;5.25;;;22.60;75.10;;;;;;5056935;28;20494;-82
2022/07/31 05:22:42;;;;;;;5.97;5.35;;;22.70;73.90;;;;;;5054727;28;20033;-80
2022/07/31 05:25:08;;;;;;;6.88;5.72;;;22.40;74.90;;;;;;5055266;28;20025;-80
2022/07/31 05:27:34;;;;;;;5.60;5.03;;;22.30;76.10;;;;;;5069997;28;20432;-77
2022/07/31 05:29:59;;;;;;;6.70;5.40;;;22.30;76.00;;;;;;5070779;28;20035;-85
2022/07/31 05:32:25;;;;;;;5.75;5.10;;;22.30;76.00;;;;;;5076305;28;20021;-77
2022/07/31 05:34:51;;;;;;;6.25;5.55;;;22.00;76.70;;;;;;5068252;28;20036;-79
2022/07/31 05:37:16;;;;;;;6.05;5.18;;;22.20;75.90;;;;;;5065946;28;20020;-79
2022/07/31 05:39:42;;;;;;;6.57;5.28;;;22.10;76.40;;;;;;5074754;28;20082;-82
2022/07/31 05:42:10;;;;;;;6.15;5.03;;;21.90;77.50;;;;;;5061943;28;20025;-81
2022/07/31 05:44:36;;;;;;;6.22;5.63;;;22.20;76.90;;;;;;5073974;28;20070;-85
2022/07/31 05:47:06;;;;;;;7.50;5.93;;;22.30;76.90;;;;;;5078653;28;20541;-84
2022/07/31 05:49:32;;;;;;;6.65;5.45;;;22.40;75.90;;;;;;5057559;28;20499;-82
2022/07/31 05:51:57;;;;;;;5.90;5.30;;;22.50;75.50;;;;;;5057537;28;20029;-78
2022/07/31 05:54:23;;;;;;;8.57;5.50;;;22.70;75.10;;;;;;5069155;28;20558;-77
2022/07/31 05:56:49;;;;;;;10.23;6.10;;;22.90;75.00;;;;;;5074378;28;20056;-79
2022/07/31 05:59:14;;;;;;;8.60;6.05;;;22.90;74.30;;;;;;5075699;28;20434;-80
2022/07/31 06:01:42;;;;;;;6.35;5.75;;;22.80;74.50;;;;;;5074886;28;20039;-79
2022/07/31 06:04:20;;;;;;;7.53;6.25;;;22.90;74.00;;;;;;5075515;28;20124;-80
2022/07/31 06:06:52;;;;;;;8.57;6.22;;;22.80;74.60;;;;;;5074388;28;20438;-85
2022/07/31 06:09:17;;;;;;;6.63;5.45;;;22.80;74.70;;;;;;5074304;28;20111;-79
2022/07/31 06:11:43;;;;;;;7.53;5.28;;;22.80;75.00;;;;;;4714416;28;10000441;-87
2022/07/31 06:14:09;;;;;;;8.25;6.30;;;22.60;75.70;;;;;;5056599;28;20671;-79
2022/07/31 06:16:35;;;;;;;7.20;6.50;;;22.90;74.80;;;;;;5066464;28;20022;-82
2022/07/31 06:19:01;;;;;;;7.97;6.13;;;22.80;74.90;;;;;;5073907;28;20024;-81
2022/07/31 06:21:26;;;;;;;8.63;6.10;;;22.50;75.40;;;;;;5080882;28;20016;-80
2022/07/31 06:23:52;;;;;;;7.97;6.13;;;22.40;76.70;;;;;;5090121;28;20082;-80
2022/07/31 06:26:18;;;;;;;7.07;5.88;;;22.40;76.20;;;;;;5081681;28;20024;-82
2022/07/31 06:28:43;;;;;;;9.65;6.32;;;22.70;75.70;;;;;;5073344;28;20027;-84
2022/07/31 06:31:19;;;;;;;7.55;5.70;;;23.00;74.20;;;;;;5059828;28;20434;-78
2022/07/31 06:33:45;;;;;;;7.93;6.03;;;23.20;74.70;;;;;;5052973;28;20139;-81
2022/07/31 06:36:11;;;;;;;6.75;5.85;;;23.20;74.10;;;;;;5071725;28;20678;-76
2022/07/31 06:38:37;;;;;;;7.82;5.40;;;23.20;74.20;;;;;;5059990;28;20431;-78
2022/07/31 06:41:02;;;;;;;7.90;5.55;;;23.00;74.40;;;;;;5065133;28;20029;-79
2022/07/31 06:43:28;;;;;;;6.40;5.28;;;23.00;73.90;;;;;;5054228;28;20044;-81
2022/07/31 06:45:53;;;;;;;5.82;5.18;;;22.70;74.20;;;;;;5058579;28;20056;-79
2022/07/31 06:48:19;;;;;;;7.00;4.85;;;22.50;76.30;;;;;;5049599;28;20029;-85
2022/07/31 06:50:46;;;;;;;6.03;4.50;;;22.60;75.20;;;;;;5057862;28;20585;-79
2022/07/31 06:53:12;;;;;;;6.45;4.80;;;22.60;75.50;;;;;;5063428;28;20047;-80
2022/07/31 06:55:38;;;;;;;6.25;5.50;;;22.70;75.70;;;;;;5081009;28;20379;-78
2022/07/31 06:58:03;;;;;;;5.75;5.00;;;23.00;75.50;;;;;;5057032;28;20033;-79
2022/07/31 07:00:29;;;;;;;6.65;4.63;;;23.00;74.00;;;;;;5062243;28;20032;-78
2022/07/31 07:02:55;;;;;;;5.78;4.63;;;23.00;75.00;;;;;;5063981;28;20040;-79
2022/07/31 07:05:20;;;;;;;5.75;4.50;;;22.70;75.30;;;;;;5061254;28;20067;-79
2022/07/31 07:07:46;;;;;;;8.18;5.10;;;22.40;76.80;;;;;;5053388;28;20024;-77
2022/07/31 07:10:12;;;;;;;5.60;4.10;;;22.10;77.20;;;;;;5057788;28;20930;-77
2022/07/31 07:12:38;;;;;;;6.70;4.40;;;22.20;77.60;;;;;;5059724;28;20029;-78
2022/07/31 07:15:04;;;;;;;5.90;4.60;;;22.30;76.70;;;;;;5068610;28;20032;-76
2022/07/31 07:17:30;;;;;;;4.75;4.07;;;22.40;77.40;;;;;;5049845;28;20086;-81
2022/07/31 07:19:56;;;;;;;5.68;4.25;;;22.30;77.80;;;;;;5053472;28;20103;-80
2022/07/31 07:22:22;;;;;;;5.47;4.68;;;22.30;77.70;;;;;;5051877;28;20041;-82
2022/07/31 07:24:49;;;;;;;6.85;4.35;;;22.70;76.70;;;;;;5059809;28;20032;-77
2022/07/31 07:27:15;;;;;;;7.50;4.47;;;23.00;75.30;;;;;;5057306;28;20017;-80
2022/07/31 07:29:40;;;;;;;8.90;4.10;;;23.00;75.50;;;;;;5065540;28;20029;-86
2022/07/31 07:32:06;;;;;;;5.88;3.90;;;23.20;74.20;;;;;;5060129;28;20040;-79
2022/07/31 07:34:32;;;;;;;4.75;4.00;;;22.90;75.20;;;;;;4713474;28;10000268;-78
2022/07/31 07:36:57;;;;;;;6.22;4.13;;;23.00;75.40;;;;;;5061901;28;20033;-76
2022/07/31 07:39:23;;;;;;;4.75;3.85;;;22.70;75.70;;;;;;5054366;28;20029;-79
2022/07/31 07:41:49;;;;;;;4.70;3.65;;;22.80;75.10;;;;;;5058837;28;20570;-76
2022/07/31 07:44:16;;;;;;;5.05;4.00;;;22.90;76.40;;;;;;5053340;28;20089;-77
2022/07/31 07:46:42;;;;;;;5.22;3.83;;;23.20;74.90;;;;;;5063697;28;20310;-85
2022/07/31 07:49:07;;;;;;;4.03;3.30;;;23.30;75.10;;;;;;5057606;28;20074;-77
2022/07/31 07:51:33;;;;;;;4.45;3.78;;;23.20;74.10;;;;;;5057124;28;20025;-78
2022/07/31 07:54:00;;;;;;;4.95;3.67;;;23.20;73.90;;;;;;5065586;28;20021;-77
2022/07/31 07:56:25;;;;;;;5.13;3.78;;;23.30;74.20;;;;;;5066059;28;20082;-76
2022/07/31 07:58:51;;;;;;;6.55;3.75;;;23.40;73.80;;;;;;5046955;28;20033;-78
2022/07/31 08:01:17;;;;;;;5.05;3.80;;;23.70;73.20;;;;;;5060906;28;20029;-76
2022/07/31 08:03:42;;;;;;;5.68;3.95;;;23.60;72.90;;;;;;5049726;28;20384;-82
2022/07/31 08:06:08;;;;;;;6.43;3.97;;;23.60;74.20;;;;;;5047833;28;20021;-82
2022/07/31 08:08:34;;;;;;;4.63;3.88;;;23.70;73.20;;;;;;5059449;28;20539;-80
2022/07/31 08:11:01;;;;;;;4.75;3.55;;;23.80;72.20;;;;;;5055610;28;20029;-75
2022/07/31 08:13:28;;;;;;;5.03;3.60;;;23.80;72.50;;;;;;5056569;28;20075;-86
2022/07/31 08:15:54;;;;;;;4.18;3.40;;;24.00;72.10;;;;;;5055951;28;20024;-76
2022/07/31 08:18:19;;;;;;;4.72;3.30;;;23.60;72.20;;;;;;5058442;28;20067;-86
2022/07/31 08:20:45;;;;;;;4.35;3.15;;;23.60;72.80;;;;;;5058764;28;20043;-81
2022/07/31 08:23:11;;;;;;;5.15;3.42;;;23.80;72.70;;;;;;5056708;28;20403;-77
2022/07/31 08:25:37;;;;;;;4.55;3.70;;;23.90;71.60;;;;;;5056993;28;20021;-80
2022/07/31 08:28:02;;;;;;;5.00;3.55;;;24.20;71.80;;;;;;5065468;28;20073;-79
2022/07/31 08:30:28;;;;;;;4.07;3.38;;;24.10;71.20;;;;;;5050304;28;20025;-76
2022/07/31 08:32:54;;;;;;;5.28;3.38;;;24.00;71.70;;;;;;5048158;28;20128;-84
2022/07/31 08:35:20;;;;;;;5.00;3.17;;;24.30;70.60;;;;;;5080977;28;20024;-75
2022/07/31 08:37:45;;;;;;;4.28;2.92;;;24.30;70.70;;;;;;5064063;28;20060;-79
2022/07/31 08:40:11;;;;;;;3.85;2.90;;;24.40;70.70;;;;;;5069600;28;20391;-77
2022/07/31 08:42:37;;;;;;;4.22;2.70;;;23.90;71.30;;;;;;5049908;28;20056;-80
2022/07/31 08:45:07;;;;;;;5.43;3.00;;;23.80;71.50;;;;;;5048171;28;20800;-80
2022/07/31 08:47:34;;;;;;;4.10;3.10;;;23.80;71.50;;;;;;5061105;28;20041;-80
2022/07/31 08:50:02;;;;;;;4.75;2.92;;;23.70;71.70;;;;;;5063361;28;20032;-83
2022/07/31 08:52:31;;;;;;;3.83;2.72;;;23.70;71.60;;;;;;5060135;28;20119;-79
2022/07/31 08:54:58;;;;;;;4.55;3.10;;;23.60;71.70;;;;;;5067090;28;20083;-80
2022/07/31 08:57:25;;;;;;;4.38;2.67;;;23.60;71.70;;;;;;5068331;28;20027;-77
2022/07/31 08:59:52;;;;;;;49.13;45.22;;;23.80;70.30;;;;;;5058831;28;20020;-76
2022/07/31 09:02:17;;;;;;;4.35;2.40;;;23.90;70.50;;;;;;5068048;28;20051;-77
2022/07/31 09:04:43;;;;;;;4.55;2.92;;;24.00;69.60;;;;;;5085324;28;20557;-78
2022/07/31 09:07:13;;;;;;;3.80;2.40;;;24.20;69.20;;;;;;5075911;28;20017;-75
2022/07/31 09:09:42;;;;;;;3.95;2.22;;;24.10;68.70;;;;;;5073786;28;20055;-80
2022/07/31 09:12:08;;;;;;;3.42;2.45;;;24.40;68.40;;;;;;5073956;28;20028;-77
2022/07/31 09:14:34;;;;;;;3.60;2.50;;;24.70;67.80;;;;;;5064249;28;20029;-80
2022/07/31 09:17:02;;;;;;;3.63;2.30;;;24.70;68.00;;;;;;5056460;28;20024;-77
2022/07/31 09:19:42;;;;;;;3.60;2.38;;;24.60;67.60;;;;;;5072346;28;20070;-78
2022/07/31 09:22:22;;;;;;;3.10;2.28;;;25.00;67.60;;;;;;5059885;28;20066;-79
2022/07/31 09:24:48;;;;;;;4.77;2.23;;;25.30;66.50;;;;;;5054281;28;20040;-78
2022/07/31 09:27:16;;;;;;;3.83;2.30;;;24.90;67.00;;;;;;5054597;28;20025;-78
2022/07/31 09:29:44;;;;;;;4.32;2.15;;;24.90;66.80;;;;;;5053933;28;20033;-78
2022/07/31 09:32:18;;;;;;;6.75;2.50;;;24.80;66.40;;;;;;5054844;28;20387;-79
2022/07/31 09:34:44;;;;;;;3.92;2.10;;;24.80;66.90;;;;;;5055766;28;20020;-84
2022/07/31 09:37:24;;;;;;;3.88;2.40;;;24.90;66.10;;;;;;5064288;28;20023;-79
2022/07/31 09:39:52;;;;;;;4.03;2.25;;;24.60;65.60;;;;;;5077932;28;20029;-82
2022/07/31 09:42:19;;;;;;;4.55;2.00;;;24.30;67.60;;;;;;5059775;28;20021;-80
2022/07/31 09:44:47;;;;;;;3.58;2.20;;;24.00;67.50;;;;;;5055183;28;20491;-77
2022/07/31 09:47:25;;;;;;;3.67;2.20;;;23.90;68.10;;;;;;5055011;28;20032;-81
2022/07/31 09:50:00;;;;;;;3.63;2.38;;;24.00;67.80;;;;;;4705619;28;10000268;-79
2022/07/31 09:52:28;;;;;;;4.20;2.47;;;24.00;68.10;;;;;;5051479;28;20376;-80
2022/07/31 09:55:20;;;;;;;3.28;2.38;;;24.10;67.30;;;;;;5056103;28;20021;-76
2022/07/31 09:57:54;;;;;;;3.45;2.20;;;23.50;68.10;;;;;;5063640;28;20028;-83
2022/07/31 10:00:20;;;;;;;86.30;78.22;;;23.60;69.60;;;;;;5072030;28;20033;-84
2022/07/31 10:02:47;;;;;;;4.10;2.50;;;23.80;68.50;;;;;;5073475;28;20023;-84
2022/07/31 10:05:15;;;;;;;4.78;2.33;;;23.60;68.40;;;;;;5053792;28;20033;-77
2022/07/31 10:07:42;;;;;;;3.67;2.50;;;24.00;68.00;;;;;;5062232;28;20021;-81
2022/07/31 10:10:09;;;;;;;3.75;2.60;;;24.50;67.20;;;;;;5071667;28;20422;-83
2022/07/31 10:12:40;;;;;;;4.32;2.50;;;24.90;66.80;;;;;;5066049;28;20039;-82
2022/07/31 10:15:10;;;;;;;3.60;2.38;;;24.90;66.70;;;;;;5064601;28;20028;-78
2022/07/31 10:17:40;;;;;;;3.17;2.20;;;24.90;65.70;;;;;;5053866;28;20032;-83
2022/07/31 10:20:08;;;;;;;4.87;2.70;;;24.90;65.80;;;;;;5055216;28;20036;-79
2022/07/31 10:22:39;;;;;;;3.30;2.30;;;24.70;66.20;;;;;;5054551;28;20471;-80
2022/07/31 10:25:11;;;;;;;5.28;2.50;;;24.50;65.90;;;;;;5060203;28;20550;-85
2022/07/31 10:27:37;;;;;;;4.20;2.72;;;24.60;66.50;;;;;;5074035;28;20085;-80
2022/07/31 10:30:05;;;;;;;4.13;2.70;;;24.60;66.50;;;;;;5063846;28;20471;-79
2022/07/31 10:32:32;;;;;;;4.95;2.42;;;24.60;65.80;;;;;;5053638;28;20399;-82
2022/07/31 10:34:58;;;;;;;4.38;2.72;;;24.00;66.50;;;;;;5072262;28;20099;-78
2022/07/31 10:37:32;;;;;;;5.50;2.88;;;23.60;69.10;;;;;;5086329;28;20047;-75
2022/07/31 10:40:15;;;;;;;5.07;2.40;;;23.80;69.60;;;;;;4704594;28;10000245;-78
2022/07/31 10:43:23;;;;;;;4.95;2.45;;;24.00;68.70;;;;;;5066347;28;20049;-80
2022/07/31 10:45:51;;;;;;;4.10;2.70;;;24.10;68.60;;;;;;5069841;28;20055;-80
2022/07/31 10:48:17;;;;;;;4.25;2.50;;;24.40;68.60;;;;;;5064609;28;20028;-79
2022/07/31 10:50:44;;;;;;;3.72;2.40;;;24.70;67.80;;;;;;5052852;28;20023;-78
2022/07/31 10:53:14;;;;;;;4.72;2.55;;;25.10;67.60;;;;;;5064898;28;20029;-78
2022/07/31 10:55:40;;;;;;;3.70;2.60;;;25.30;65.90;;;;;;5052168;28;20025;-78
2022/07/31 10:58:08;;;;;;;6.28;3.40;;;25.10;64.70;;;;;;5058417;28;20531;-82
2022/07/31 11:00:34;;;;;;;4.18;2.58;;;24.80;66.70;;;;;;5066635;28;20391;-79
2022/07/31 11:03:10;;;;;;;4.68;3.10;;;25.00;66.90;;;;;;5069215;28;20435;-78
2022/07/31 11:05:36;;;;;;;3.72;2.58;;;25.30;65.50;;;;;;5056666;28;20563;-80
2022/07/31 11:08:04;;;;;;;3.72;2.60;;;25.60;66.00;;;;;;5073201;28;20025;-79
2022/07/31 11:10:32;;;;;;;3.42;2.60;;;25.80;65.50;;;;;;5073516;28;20070;-76
2022/07/31 11:13:09;;;;;;;3.72;2.70;;;25.90;64.20;;;;;;5069319;28;20100;-80
2022/07/31 11:15:38;;;;;;;3.92;2.70;;;25.90;64.10;;;;;;5069485;28;20079;-78
2022/07/31 11:18:11;;;;;;;4.82;2.35;;;25.50;64.20;;;;;;5072114;28;20451;-79
2022/07/31 11:20:37;;;;;;;6.28;2.65;;;25.40;65.60;;;;;;5073507;28;20063;-86
2022/07/31 11:23:05;;;;;;;5.32;2.80;;;25.10;65.80;;;;;;5061340;28;20061;-79
2022/07/31 11:25:34;;;;;;;4.00;2.63;;;24.90;65.80;;;;;;5052140;28;20033;-84
2022/07/31 11:28:09;;;;;;;4.25;2.50;;;25.10;66.30;;;;;;5055439;28;20025;-82
2022/07/31 11:30:56;;;;;;;4.75;2.88;;;25.00;64.60;;;;;;5059622;28;20056;-76
2022/07/31 11:33:34;;;;;;;4.38;3.05;;;25.00;65.60;;;;;;4708772;28;9999899;-79
2022/07/31 11:36:07;;;;;;;4.20;2.80;;;25.30;66.10;;;;;;5053448;28;20024;-77
2022/07/31 11:38:34;;;;;;;4.70;2.70;;;25.60;65.10;;;;;;5063650;28;20035;-80
2022/07/31 11:41:00;;;;;;;3.92;2.80;;;25.90;64.50;;;;;;5051825;28;20052;-82
2022/07/31 11:43:25;;;;;;;5.40;2.95;;;25.90;64.50;;;;;;5064797;28;20487;-80
2022/07/31 11:45:53;;;;;;;3.70;2.80;;;25.60;63.90;;;;;;5069023;28;20024;-81
2022/07/31 11:48:20;;;;;;;6.35;3.08;;;25.30;65.20;;;;;;5070296;28;20025;-81
2022/07/31 11:50:48;;;;;;;4.70;3.00;;;25.50;64.70;;;;;;5058307;28;20451;-78
2022/07/31 11:53:14;;;;;;;6.55;2.97;;;25.50;65.00;;;;;;5050385;28;20733;-78
2022/07/31 11:56:00;;;;;;;5.85;3.15;;;25.30;65.40;;;;;;5068238;28;20035;-81
2022/07/31 11:58:27;;;;;;;3.97;2.95;;;25.10;65.50;;;;;;5070372;28;20028;-78
2022/07/31 12:00:59;;;;;;;4.45;2.85;;;25.10;66.60;;;;;;5054693;28;20074;-80
2022/07/31 12:03:29;;;;;;;3.80;3.00;;;24.90;66.10;;;;;;5048354;28;20112;-79
2022/07/31 12:05:54;;;;;;;4.75;2.85;;;24.60;67.10;;;;;;5060186;28;20025;-81
2022/07/31 12:08:24;;;;;;;4.97;3.00;;;24.30;68.00;;;;;;5066717;28;20044;-78
2022/07/31 12:10:58;;;;;;;4.78;3.40;;;24.00;67.60;;;;;;5050383;28;20031;-76
2022/07/31 12:13:25;;;;;;;4.38;2.85;;;23.90;68.10;;;;;;5057539;28;20027;-78
2022/07/31 12:15:56;;;;;;;5.15;3.40;;;24.10;68.00;;;;;;5059378;28;20025;-79
2022/07/31 12:18:22;;;;;;;5.15;3.10;;;24.30;67.70;;;;;;5055771;28;20044;-77
2022/07/31 12:21:02;;;;;;;4.90;3.20;;;24.10;66.60;;;;;;5063460;28;20659;-80
2022/07/31 12:23:46;;;;;;;5.00;3.40;;;23.90;67.70;;;;;;5083857;28;20032;-78
2022/07/31 12:26:22;;;;;;;3.92;3.08;;;24.00;67.90;;;;;;5074102;28;20020;-79
2022/07/31 12:29:09;;;;;;;7.68;3.63;;;24.40;67.50;;;;;;5072921;28;20050;-79
2022/07/31 12:31:49;;;;;;;4.43;3.00;;;24.70;66.40;;;;;;5065981;28;20037;-81
2022/07/31 12:34:39;;;;;;;4.90;3.20;;;24.40;66.00;;;;;;5076282;28;20441;-76
2022/07/31 12:37:13;;;;;;;5.53;3.10;;;24.40;67.10;;;;;;5072346;28;20040;-80
2022/07/31 12:39:51;;;;;;;5.18;3.20;;;24.70;65.80;;;;;;5077199;28;20032;-80
2022/07/31 12:42:21;;;;;;;5.50;3.10;;;24.80;66.80;;;;;;5055671;28;20036;-78
2022/07/31 12:44:51;;;;;;;4.55;2.95;;;25.00;65.60;;;;;;5062459;28;20045;-78
2022/07/31 12:47:26;;;;;;;4.53;2.90;;;25.10;64.90;;;;;;5058345;28;20024;-81
2022/07/31 12:49:52;;;;;;;4.10;2.88;;;25.20;64.90;;;;;;5059975;28;20094;-83
2022/07/31 12:52:19;;;;;;;4.85;3.10;;;25.00;65.40;;;;;;5052263;28;20025;-79